sensor_id;sensor_type;location;lat;lon;timestamp;P1;durP1;ratioP1;P2;durP2;ratioP2
20036;SDS011;10179;42.640;23.312;2023-11-19T00:02:21;2.08;;;1.88;;
20036;SDS011;10179;42.640;23.312;2023-11-19T00:04:46;2.20;;;2.00;;
20036;SDS011;10179;42.640;23.312;2023-11-19T00:07:12;1.58;;;1.45;;
20036;SDS011;10179;42.640;23.312;2023-11-19T00:09:39;2.30;;;1.75;;
20036;SDS011;10179;42.640;23.312;2023-11-19T00:12:05;2.45;;;1.58;;
20036;SDS011;10179;42.640;23.312;2023-11-19T00:14:31;1.77;;;1.40;;
20036;SDS011;10179;42.640;23.312;2023-11-19T00:16:57;2.20;;;1.90;;
20036;SDS011;10179;42.640;23.312;2023-11-19T00:19:22;1.98;;;1.70;;
20036;SDS011;10179;42.640;23.312;2023-11-19T00:21:47;2.45;;;2.20;;
20036;SDS011;10179;42.640;23.312;2023-11-19T00:24:13;3.13;;;1.77;;
20036;SDS011;10179;42.640;23.312;2023-11-19T00:26:41;2.17;;;1.67;;
20036;SDS011;10179;42.640;23.312;2023-11-19T00:29:07;1.77;;;1.63;;
20036;SDS011;10179;42.640;23.312;2023-11-19T00:31:32;5.28;;;2.22;;
20036;SDS011;10179;42.640;23.312;2023-11-19T00:33:58;2.03;;;1.73;;
20036;SDS011;10179;42.640;23.312;2023-11-19T00:36:23;3.55;;;2.33;;
20036;SDS011;10179;42.640;23.312;2023-11-19T00:38:49;2.38;;;1.95;;
20036;SDS011;10179;42.640;23.312;2023-11-19T00:41:15;2.67;;;2.10;;
20036;SDS011;10179;42.640;23.312;2023-11-19T00:43:42;3.42;;;2.53;;
20036;SDS011;10179;42.640;23.312;2023-11-19T00:46:07;2.15;;;1.95;;
20036;SDS011;10179;42.640;23.312;2023-11-19T00:48:33;2.67;;;2.10;;
20036;SDS011;10179;42.640;23.312;2023-11-19T00:50:58;2.47;;;2.15;;
20036;SDS011;10179;42.640;23.312;2023-11-19T00:53:24;2.33;;;2.08;;
20036;SDS011;10179;42.640;23.312;2023-11-19T00:55:50;2.20;;;2.00;;
20036;SDS011;10179;42.640;23.312;2023-11-19T00:58:15;3.58;;;2.40;;
20036;SDS011;10179;42.640;23.312;2023-11-19T01:00:42;2.38;;;2.10;;
20036;SDS011;10179;42.640;23.312;2023-11-19T01:03:08;5.38;;;2.40;;
20036;SDS011;10179;42.640;23.312;2023-11-19T01:05:33;2.53;;;1.80;;
20036;SDS011;10179;42.640;23.312;2023-11-19T01:07:58;4.32;;;2.10;;
20036;SDS011;10179;42.640;23.312;2023-11-19T01:10:24;2.40;;;1.45;;
20036;SDS011;10179;42.640;23.312;2023-11-19T01:12:50;3.40;;;2.30;;
20036;SDS011;10179;42.640;23.312;2023-11-19T01:15:16;2.45;;;1.60;;
20036;SDS011;10179;42.640;23.312;2023-11-19T01:17:43;2.92;;;2.25;;
20036;SDS011;10179;42.640;23.312;2023-11-19T01:20:09;3.45;;;2.40;;
20036;SDS011;10179;42.640;23.312;2023-11-19T01:22:37;3.58;;;1.92;;
20036;SDS011;10179;42.640;23.312;2023-11-19T01:25:02;2.75;;;1.58;;
20036;SDS011;10179;42.640;23.312;2023-11-19T01:27:30;2.45;;;2.17;;
20036;SDS011;10179;42.640;23.312;2023-11-19T01:29:55;2.03;;;1.73;;
20036;SDS011;10179;42.640;23.312;2023-11-19T01:32:21;1.98;;;1.77;;
20036;SDS011;10179;42.640;23.312;2023-11-19T01:34:49;1.58;;;1.48;;
20036;SDS011;10179;42.640;23.312;2023-11-19T01:37:14;2.22;;;1.98;;
20036;SDS011;10179;42.640;23.312;2023-11-19T01:39:40;2.50;;;1.92;;
20036;SDS011;10179;42.640;23.312;2023-11-19T01:42:05;3.08;;;2.15;;
20036;SDS011;10179;42.640;23.312;2023-11-19T01:44:30;1.95;;;1.60;;
20036;SDS011;10179;42.640;23.312;2023-11-19T01:46:57;1.75;;;1.30;;
20036;SDS011;10179;42.640;23.312;2023-11-19T01:49:22;2.90;;;1.88;;
20036;SDS011;10179;42.640;23.312;2023-11-19T01:51:48;2.60;;;1.77;;
20036;SDS011;10179;42.640;23.312;2023-11-19T01:54:14;2.22;;;1.50;;
20036;SDS011;10179;42.640;23.312;2023-11-19T01:56:40;2.33;;;1.80;;
20036;SDS011;10179;42.640;23.312;2023-11-19T01:59:06;2.33;;;1.90;;
20036;SDS011;10179;42.640;23.312;2023-11-19T02:01:34;2.17;;;1.67;;
20036;SDS011;10179;42.640;23.312;2023-11-19T02:04:04;1.77;;;1.58;;
20036;SDS011;10179;42.640;23.312;2023-11-19T02:06:31;3.00;;;1.85;;
20036;SDS011;10179;42.640;23.312;2023-11-19T02:08:59;3.22;;;1.88;;
20036;SDS011;10179;42.640;23.312;2023-11-19T02:11:25;1.85;;;1.70;;
20036;SDS011;10179;42.640;23.312;2023-11-19T02:13:54;1.60;;;1.50;;
20036;SDS011;10179;42.640;23.312;2023-11-19T02:16:20;2.05;;;1.80;;
20036;SDS011;10179;42.640;23.312;2023-11-19T02:18:46;1.50;;;1.40;;
20036;SDS011;10179;42.640;23.312;2023-11-19T02:21:11;2.60;;;1.95;;
20036;SDS011;10179;42.640;23.312;2023-11-19T02:23:37;1.85;;;1.50;;
20036;SDS011;10179;42.640;23.312;2023-11-19T02:26:18;2.47;;;1.77;;
20036;SDS011;10179;42.640;23.312;2023-11-19T02:29:04;1.83;;;1.55;;
20036;SDS011;10179;42.640;23.312;2023-11-19T02:31:31;2.10;;;1.90;;
20036;SDS011;10179;42.640;23.312;2023-11-19T02:33:57;3.00;;;1.73;;
20036;SDS011;10179;42.640;23.312;2023-11-19T02:36:25;2.05;;;1.80;;
20036;SDS011;10179;42.640;23.312;2023-11-19T02:38:50;2.17;;;1.60;;
20036;SDS011;10179;42.640;23.312;2023-11-19T02:41:15;1.38;;;1.27;;
20036;SDS011;10179;42.640;23.312;2023-11-19T02:43:41;1.73;;;1.33;;
20036;SDS011;10179;42.640;23.312;2023-11-19T02:46:06;3.58;;;1.92;;
20036;SDS011;10179;42.640;23.312;2023-11-19T02:48:32;1.65;;;1.50;;
20036;SDS011;10179;42.640;23.312;2023-11-19T02:51:01;2.25;;;1.60;;
20036;SDS011;10179;42.640;23.312;2023-11-19T02:53:28;1.83;;;1.73;;
20036;SDS011;10179;42.640;23.312;2023-11-19T02:55:54;2.08;;;1.80;;
20036;SDS011;10179;42.640;23.312;2023-11-19T02:58:26;2.97;;;2.05;;
20036;SDS011;10179;42.640;23.312;2023-11-19T03:00:53;3.17;;;1.70;;
20036;SDS011;10179;42.640;23.312;2023-11-19T03:03:37;2.30;;;1.70;;
20036;SDS011;10179;42.640;23.312;2023-11-19T03:06:06;1.52;;;1.42;;
20036;SDS011;10179;42.640;23.312;2023-11-19T03:08:34;4.63;;;1.80;;
20036;SDS011;10179;42.640;23.312;2023-11-19T03:11:00;2.88;;;1.83;;
20036;SDS011;10179;42.640;23.312;2023-11-19T03:13:26;3.05;;;1.77;;
20036;SDS011;10179;42.640;23.312;2023-11-19T03:15:52;2.42;;;1.58;;
20036;SDS011;10179;42.640;23.312;2023-11-19T03:18:18;1.70;;;1.58;;
20036;SDS011;10179;42.640;23.312;2023-11-19T03:20:45;1.65;;;1.40;;
20036;SDS011;10179;42.640;23.312;2023-11-19T03:23:11;2.17;;;1.88;;
20036;SDS011;10179;42.640;23.312;2023-11-19T03:25:37;1.85;;;1.50;;
20036;SDS011;10179;42.640;23.312;2023-11-19T03:28:02;3.88;;;1.85;;
20036;SDS011;10179;42.640;23.312;2023-11-19T03:30:28;2.42;;;1.67;;
20036;SDS011;10179;42.640;23.312;2023-11-19T03:32:57;1.17;;;1.08;;
20036;SDS011;10179;42.640;23.312;2023-11-19T03:35:22;1.52;;;1.40;;
20036;SDS011;10179;42.640;23.312;2023-11-19T03:37:48;2.33;;;1.60;;
20036;SDS011;10179;42.640;23.312;2023-11-19T03:40:14;3.75;;;1.80;;
20036;SDS011;10179;42.640;23.312;2023-11-19T03:42:40;1.77;;;1.55;;
20036;SDS011;10179;42.640;23.312;2023-11-19T03:45:06;5.30;;;1.70;;
20036;SDS011;10179;42.640;23.312;2023-11-19T03:47:35;1.85;;;1.33;;
20036;SDS011;10179;42.640;23.312;2023-11-19T03:50:01;2.97;;;1.50;;
20036;SDS011;10179;42.640;23.312;2023-11-19T03:52:27;2.63;;;1.60;;
20036;SDS011;10179;42.640;23.312;2023-11-19T03:54:54;2.75;;;1.83;;
20036;SDS011;10179;42.640;23.312;2023-11-19T03:57:23;5.57;;;2.03;;
20036;SDS011;10179;42.640;23.312;2023-11-19T03:59:49;2.35;;;1.50;;
20036;SDS011;10179;42.640;23.312;2023-11-19T04:02:15;2.40;;;1.92;;
20036;SDS011;10179;42.640;23.312;2023-11-19T04:04:40;2.85;;;1.75;;
20036;SDS011;10179;42.640;23.312;2023-11-19T04:07:06;2.28;;;1.60;;
20036;SDS011;10179;42.640;23.312;2023-11-19T04:09:31;3.45;;;1.83;;
20036;SDS011;10179;42.640;23.312;2023-11-19T04:11:58;2.30;;;1.60;;
20036;SDS011;10179;42.640;23.312;2023-11-19T04:14:24;1.52;;;1.35;;
20036;SDS011;10179;42.640;23.312;2023-11-19T04:16:49;1.98;;;1.65;;
20036;SDS011;10179;42.640;23.312;2023-11-19T04:19:16;1.70;;;1.45;;
20036;SDS011;10179;42.640;23.312;2023-11-19T04:21:41;2.15;;;1.23;;
20036;SDS011;10179;42.640;23.312;2023-11-19T04:24:07;2.17;;;1.70;;
20036;SDS011;10179;42.640;23.312;2023-11-19T04:26:40;2.85;;;1.88;;
20036;SDS011;10179;42.640;23.312;2023-11-19T04:29:07;2.90;;;2.13;;
20036;SDS011;10179;42.640;23.312;2023-11-19T04:31:37;2.40;;;1.75;;
20036;SDS011;10179;42.640;23.312;2023-11-19T04:34:02;2.55;;;1.70;;
20036;SDS011;10179;42.640;23.312;2023-11-19T04:36:27;3.25;;;1.90;;
20036;SDS011;10179;42.640;23.312;2023-11-19T04:38:54;2.70;;;2.15;;
20036;SDS011;10179;42.640;23.312;2023-11-19T04:41:20;2.38;;;1.50;;
20036;SDS011;10179;42.640;23.312;2023-11-19T04:43:45;2.47;;;1.70;;
20036;SDS011;10179;42.640;23.312;2023-11-19T04:46:11;2.78;;;1.83;;
20036;SDS011;10179;42.640;23.312;2023-11-19T04:48:36;2.80;;;1.88;;
20036;SDS011;10179;42.640;23.312;2023-11-19T04:51:04;1.75;;;1.45;;
20036;SDS011;10179;42.640;23.312;2023-11-19T04:53:30;2.17;;;1.98;;
20036;SDS011;10179;42.640;23.312;2023-11-19T04:55:56;2.05;;;1.85;;
20036;SDS011;10179;42.640;23.312;2023-11-19T04:58:21;2.75;;;1.92;;
20036;SDS011;10179;42.640;23.312;2023-11-19T05:00:46;3.15;;;1.80;;
20036;SDS011;10179;42.640;23.312;2023-11-19T05:03:12;2.30;;;1.65;;
20036;SDS011;10179;42.640;23.312;2023-11-19T05:05:37;2.55;;;2.03;;
20036;SDS011;10179;42.640;23.312;2023-11-19T05:08:02;2.28;;;1.80;;
20036;SDS011;10179;42.640;23.312;2023-11-19T05:10:28;2.83;;;1.67;;
20036;SDS011;10179;42.640;23.312;2023-11-19T05:12:53;2.42;;;1.77;;
20036;SDS011;10179;42.640;23.312;2023-11-19T05:15:21;2.78;;;1.73;;
20036;SDS011;10179;42.640;23.312;2023-11-19T05:17:46;2.65;;;1.80;;
20036;SDS011;10179;42.640;23.312;2023-11-19T05:20:11;1.63;;;1.40;;
20036;SDS011;10179;42.640;23.312;2023-11-19T05:22:40;2.40;;;1.63;;
20036;SDS011;10179;42.640;23.312;2023-11-19T05:25:07;2.60;;;1.80;;
20036;SDS011;10179;42.640;23.312;2023-11-19T05:27:34;2.20;;;1.52;;
20036;SDS011;10179;42.640;23.312;2023-11-19T05:30:01;2.35;;;1.70;;
20036;SDS011;10179;42.640;23.312;2023-11-19T05:32:26;1.80;;;1.63;;
20036;SDS011;10179;42.640;23.312;2023-11-19T05:34:52;1.55;;;1.42;;
20036;SDS011;10179;42.640;23.312;2023-11-19T05:37:17;2.70;;;1.75;;
20036;SDS011;10179;42.640;23.312;2023-11-19T05:39:44;3.40;;;1.90;;
20036;SDS011;10179;42.640;23.312;2023-11-19T05:42:10;3.20;;;2.10;;
20036;SDS011;10179;42.640;23.312;2023-11-19T05:44:35;2.88;;;1.98;;
20036;SDS011;10179;42.640;23.312;2023-11-19T05:47:01;3.08;;;1.83;;
20036;SDS011;10179;42.640;23.312;2023-11-19T05:49:27;2.97;;;1.75;;
20036;SDS011;10179;42.640;23.312;2023-11-19T05:51:52;2.70;;;2.03;;
20036;SDS011;10179;42.640;23.312;2023-11-19T05:54:20;6.40;;;1.83;;
20036;SDS011;10179;42.640;23.312;2023-11-19T05:56:49;2.90;;;1.90;;
20036;SDS011;10179;42.640;23.312;2023-11-19T05:59:14;2.33;;;1.50;;
20036;SDS011;10179;42.640;23.312;2023-11-19T06:01:42;3.22;;;2.10;;
20036;SDS011;10179;42.640;23.312;2023-11-19T06:04:08;1.60;;;1.40;;
20036;SDS011;10179;42.640;23.312;2023-11-19T06:06:34;2.85;;;2.00;;
20036;SDS011;10179;42.640;23.312;2023-11-19T06:08:59;1.90;;;1.75;;
20036;SDS011;10179;42.640;23.312;2023-11-19T06:11:25;3.80;;;1.90;;
20036;SDS011;10179;42.640;23.312;2023-11-19T06:13:51;3.13;;;1.83;;
20036;SDS011;10179;42.640;23.312;2023-11-19T06:16:17;2.40;;;1.70;;
20036;SDS011;10179;42.640;23.312;2023-11-19T06:18:43;2.47;;;1.98;;
20036;SDS011;10179;42.640;23.312;2023-11-19T06:21:09;2.47;;;1.95;;
20036;SDS011;10179;42.640;23.312;2023-11-19T06:23:35;2.90;;;2.22;;
20036;SDS011;10179;42.640;23.312;2023-11-19T06:26:00;1.80;;;1.42;;
20036;SDS011;10179;42.640;23.312;2023-11-19T06:28:26;1.98;;;1.70;;
20036;SDS011;10179;42.640;23.312;2023-11-19T06:30:51;2.03;;;1.45;;
20036;SDS011;10179;42.640;23.312;2023-11-19T06:33:17;3.53;;;1.92;;
20036;SDS011;10179;42.640;23.312;2023-11-19T06:35:42;2.17;;;1.80;;
20036;SDS011;10179;42.640;23.312;2023-11-19T06:38:07;3.15;;;2.22;;
20036;SDS011;10179;42.640;23.312;2023-11-19T06:40:33;3.45;;;1.90;;
20036;SDS011;10179;42.640;23.312;2023-11-19T06:43:02;3.03;;;2.08;;
20036;SDS011;10179;42.640;23.312;2023-11-19T06:45:28;2.30;;;1.63;;
20036;SDS011;10179;42.640;23.312;2023-11-19T06:47:54;2.60;;;2.03;;
20036;SDS011;10179;42.640;23.312;2023-11-19T06:50:19;4.00;;;2.00;;
20036;SDS011;10179;42.640;23.312;2023-11-19T06:52:45;2.50;;;1.40;;
20036;SDS011;10179;42.640;23.312;2023-11-19T06:55:11;3.20;;;1.70;;
20036;SDS011;10179;42.640;23.312;2023-11-19T06:57:36;3.45;;;2.38;;
20036;SDS011;10179;42.640;23.312;2023-11-19T07:00:02;1.63;;;1.40;;
20036;SDS011;10179;42.640;23.312;2023-11-19T07:02:30;3.80;;;2.22;;
20036;SDS011;10179;42.640;23.312;2023-11-19T07:04:55;3.05;;;2.03;;
20036;SDS011;10179;42.640;23.312;2023-11-19T07:07:21;3.28;;;1.48;;
20036;SDS011;10179;42.640;23.312;2023-11-19T07:09:47;3.50;;;1.98;;
20036;SDS011;10179;42.640;23.312;2023-11-19T07:12:13;4.28;;;1.60;;
20036;SDS011;10179;42.640;23.312;2023-11-19T07:14:39;4.32;;;2.10;;
20036;SDS011;10179;42.640;23.312;2023-11-19T07:17:05;2.50;;;1.95;;
20036;SDS011;10179;42.640;23.312;2023-11-19T07:19:31;5.05;;;1.52;;
20036;SDS011;10179;42.640;23.312;2023-11-19T07:21:56;1.88;;;1.73;;
20036;SDS011;10179;42.640;23.312;2023-11-19T07:24:22;3.17;;;2.35;;
20036;SDS011;10179;42.640;23.312;2023-11-19T07:26:47;2.85;;;1.88;;
20036;SDS011;10179;42.640;23.312;2023-11-19T07:29:13;1.80;;;1.50;;
20036;SDS011;10179;42.640;23.312;2023-11-19T07:31:42;4.65;;;2.10;;
20036;SDS011;10179;42.640;23.312;2023-11-19T07:34:09;2.53;;;1.80;;
20036;SDS011;10179;42.640;23.312;2023-11-19T07:36:36;3.33;;;2.47;;
20036;SDS011;10179;42.640;23.312;2023-11-19T07:42:05;3.97;;;2.38;;
20036;SDS011;10179;42.640;23.312;2023-11-19T07:44:31;2.53;;;1.67;;
20036;SDS011;10179;42.640;23.312;2023-11-19T07:46:57;3.28;;;2.38;;
20036;SDS011;10179;42.640;23.312;2023-11-19T07:49:23;3.22;;;2.40;;
20036;SDS011;10179;42.640;23.312;2023-11-19T07:51:49;2.30;;;1.80;;
20036;SDS011;10179;42.640;23.312;2023-11-19T07:54:16;1.77;;;1.65;;
20036;SDS011;10179;42.640;23.312;2023-11-19T07:56:42;2.80;;;1.88;;
20036;SDS011;10179;42.640;23.312;2023-11-19T07:59:07;2.38;;;1.80;;
20036;SDS011;10179;42.640;23.312;2023-11-19T08:01:33;3.30;;;2.13;;
20036;SDS011;10179;42.640;23.312;2023-11-19T08:04:02;3.15;;;2.17;;
20036;SDS011;10179;42.640;23.312;2023-11-19T08:06:27;4.15;;;2.60;;
20036;SDS011;10179;42.640;23.312;2023-11-19T08:08:53;3.38;;;2.25;;
20036;SDS011;10179;42.640;23.312;2023-11-19T08:11:18;2.58;;;2.10;;
20036;SDS011;10179;42.640;23.312;2023-11-19T08:13:47;2.10;;;1.35;;
20036;SDS011;10179;42.640;23.312;2023-11-19T08:16:12;3.38;;;2.17;;
20036;SDS011;10179;42.640;23.312;2023-11-19T08:18:38;3.92;;;2.58;;
20036;SDS011;10179;42.640;23.312;2023-11-19T08:21:04;3.53;;;2.40;;
20036;SDS011;10179;42.640;23.312;2023-11-19T08:23:30;3.05;;;2.20;;
20036;SDS011;10179;42.640;23.312;2023-11-19T08:25:55;3.03;;;2.28;;
20036;SDS011;10179;42.640;23.312;2023-11-19T08:28:20;4.15;;;2.17;;
20036;SDS011;10179;42.640;23.312;2023-11-19T08:30:46;3.28;;;2.30;;
20036;SDS011;10179;42.640;23.312;2023-11-19T08:33:11;4.10;;;2.65;;
20036;SDS011;10179;42.640;23.312;2023-11-19T08:35:37;2.35;;;1.80;;
20036;SDS011;10179;42.640;23.312;2023-11-19T08:38:02;3.80;;;3.00;;
20036;SDS011;10179;42.640;23.312;2023-11-19T08:40:28;4.78;;;3.13;;
20036;SDS011;10179;42.640;23.312;2023-11-19T08:42:55;3.33;;;2.03;;
20036;SDS011;10179;42.640;23.312;2023-11-19T08:45:21;5.45;;;3.00;;
20036;SDS011;10179;42.640;23.312;2023-11-19T08:47:46;12.15;;;4.30;;
20036;SDS011;10179;42.640;23.312;2023-11-19T08:50:11;9.38;;;4.00;;
20036;SDS011;10179;42.640;23.312;2023-11-19T08:52:37;6.07;;;3.50;;
20036;SDS011;10179;42.640;23.312;2023-11-19T08:55:03;5.47;;;3.22;;
20036;SDS011;10179;42.640;23.312;2023-11-19T08:57:30;3.90;;;1.73;;
20036;SDS011;10179;42.640;23.312;2023-11-19T08:59:56;2.90;;;2.60;;
20036;SDS011;10179;42.640;23.312;2023-11-19T09:02:21;2.53;;;1.90;;
20036;SDS011;10179;42.640;23.312;2023-11-19T09:04:47;2.47;;;1.95;;
20036;SDS011;10179;42.640;23.312;2023-11-19T09:07:12;1.65;;;1.42;;
20036;SDS011;10179;42.640;23.312;2023-11-19T09:09:38;2.40;;;1.73;;
20036;SDS011;10179;42.640;23.312;2023-11-19T09:12:03;2.20;;;1.70;;
20036;SDS011;10179;42.640;23.312;2023-11-19T09:14:29;2.42;;;1.80;;
20036;SDS011;10179;42.640;23.312;2023-11-19T09:16:55;3.33;;;2.70;;
20036;SDS011;10179;42.640;23.312;2023-11-19T09:19:21;3.30;;;2.15;;
20036;SDS011;10179;42.640;23.312;2023-11-19T09:21:46;3.53;;;2.50;;
20036;SDS011;10179;42.640;23.312;2023-11-19T09:24:13;3.53;;;2.15;;
20036;SDS011;10179;42.640;23.312;2023-11-19T09:26:38;2.30;;;1.63;;
20036;SDS011;10179;42.640;23.312;2023-11-19T09:29:06;3.13;;;2.00;;
20036;SDS011;10179;42.640;23.312;2023-11-19T09:31:32;3.45;;;2.17;;
20036;SDS011;10179;42.640;23.312;2023-11-19T09:33:59;2.45;;;1.73;;
20036;SDS011;10179;42.640;23.312;2023-11-19T09:36:24;3.83;;;2.40;;
20036;SDS011;10179;42.640;23.312;2023-11-19T09:38:50;4.40;;;2.60;;
20036;SDS011;10179;42.640;23.312;2023-11-19T09:41:15;3.20;;;2.05;;
20036;SDS011;10179;42.640;23.312;2023-11-19T09:43:41;3.15;;;1.75;;
20036;SDS011;10179;42.640;23.312;2023-11-19T09:46:08;3.17;;;2.53;;
20036;SDS011;10179;42.640;23.312;2023-11-19T09:48:38;2.97;;;1.92;;
20036;SDS011;10179;42.640;23.312;2023-11-19T09:51:08;2.08;;;1.52;;
20036;SDS011;10179;42.640;23.312;2023-11-19T09:53:35;3.08;;;2.40;;
20036;SDS011;10179;42.640;23.312;2023-11-19T09:56:02;4.95;;;2.67;;
20036;SDS011;10179;42.640;23.312;2023-11-19T09:58:29;4.63;;;2.30;;
20036;SDS011;10179;42.640;23.312;2023-11-19T10:00:56;2.88;;;1.88;;
20036;SDS011;10179;42.640;23.312;2023-11-19T10:03:24;4.95;;;2.08;;
20036;SDS011;10179;42.640;23.312;2023-11-19T10:05:52;3.50;;;2.20;;
20036;SDS011;10179;42.640;23.312;2023-11-19T10:08:19;6.55;;;3.20;;
20036;SDS011;10179;42.640;23.312;2023-11-19T10:10:44;2.53;;;2.03;;
20036;SDS011;10179;42.640;23.312;2023-11-19T10:13:10;1.98;;;1.60;;
20036;SDS011;10179;42.640;23.312;2023-11-19T10:15:36;2.92;;;2.33;;
20036;SDS011;10179;42.640;23.312;2023-11-19T10:18:02;2.67;;;1.70;;
20036;SDS011;10179;42.640;23.312;2023-11-19T10:20:37;4.40;;;1.80;;
20036;SDS011;10179;42.640;23.312;2023-11-19T10:23:03;2.30;;;1.80;;
20036;SDS011;10179;42.640;23.312;2023-11-19T10:25:28;3.42;;;2.35;;
20036;SDS011;10179;42.640;23.312;2023-11-19T10:27:55;3.20;;;2.40;;
20036;SDS011;10179;42.640;23.312;2023-11-19T10:30:21;3.15;;;2.30;;
20036;SDS011;10179;42.640;23.312;2023-11-19T10:35:55;2.25;;;1.58;;
20036;SDS011;10179;42.640;23.312;2023-11-19T10:38:22;3.75;;;1.75;;
20036;SDS011;10179;42.640;23.312;2023-11-19T10:40:49;3.63;;;1.83;;
20036;SDS011;10179;42.640;23.312;2023-11-19T10:43:16;2.70;;;1.45;;
20036;SDS011;10179;42.640;23.312;2023-11-19T10:45:42;2.92;;;1.48;;
20036;SDS011;10179;42.640;23.312;2023-11-19T10:48:08;4.53;;;1.92;;
20036;SDS011;10179;42.640;23.312;2023-11-19T10:50:34;2.78;;;2.10;;
20036;SDS011;10179;42.640;23.312;2023-11-19T10:53:01;2.95;;;2.08;;
20036;SDS011;10179;42.640;23.312;2023-11-19T10:55:28;4.68;;;2.58;;
20036;SDS011;10179;42.640;23.312;2023-11-19T10:58:02;4.68;;;2.50;;
20036;SDS011;10179;42.640;23.312;2023-11-19T11:00:44;2.22;;;1.85;;
20036;SDS011;10179;42.640;23.312;2023-11-19T11:03:14;2.60;;;2.00;;
20036;SDS011;10179;42.640;23.312;2023-11-19T11:05:42;2.35;;;2.08;;
20036;SDS011;10179;42.640;23.312;2023-11-19T11:08:08;2.38;;;1.70;;
20036;SDS011;10179;42.640;23.312;2023-11-19T11:10:38;2.40;;;1.90;;
20036;SDS011;10179;42.640;23.312;2023-11-19T11:13:07;2.85;;;1.90;;
20036;SDS011;10179;42.640;23.312;2023-11-19T11:15:33;3.30;;;2.25;;
20036;SDS011;10179;42.640;23.312;2023-11-19T11:18:00;3.22;;;2.22;;
20036;SDS011;10179;42.640;23.312;2023-11-19T11:20:30;2.30;;;1.98;;
20036;SDS011;10179;42.640;23.312;2023-11-19T11:31:48;3.15;;;2.10;;
20036;SDS011;10179;42.640;23.312;2023-11-19T11:37:18;2.88;;;1.80;;
20036;SDS011;10179;42.640;23.312;2023-11-19T11:39:51;1.50;;;1.17;;
20036;SDS011;10179;42.640;23.312;2023-11-19T11:47:25;1.55;;;1.33;;
20036;SDS011;10179;42.640;23.312;2023-11-19T11:49:51;2.45;;;1.88;;
20036;SDS011;10179;42.640;23.312;2023-11-19T11:52:17;4.43;;;2.00;;
20036;SDS011;10179;42.640;23.312;2023-11-19T11:54:43;3.53;;;1.50;;
20036;SDS011;10179;42.640;23.312;2023-11-19T11:57:10;6.03;;;2.13;;
20036;SDS011;10179;42.640;23.312;2023-11-19T12:02:05;2.47;;;1.70;;
20036;SDS011;10179;42.640;23.312;2023-11-19T12:04:34;4.55;;;3.17;;
20036;SDS011;10179;42.640;23.312;2023-11-19T12:07:44;3.75;;;1.98;;
20036;SDS011;10179;42.640;23.312;2023-11-19T12:09:55;5.57;;;2.72;;
20036;SDS011;10179;42.640;23.312;2023-11-19T12:12:33;3.58;;;2.08;;
20036;SDS011;10179;42.640;23.312;2023-11-19T12:20:05;2.45;;;1.83;;
20036;SDS011;10179;42.640;23.312;2023-11-19T12:22:34;1.30;;;1.02;;
20036;SDS011;10179;42.640;23.312;2023-11-19T12:25:02;2.35;;;1.70;;
20036;SDS011;10179;42.640;23.312;2023-11-19T12:27:29;5.43;;;2.35;;
20036;SDS011;10179;42.640;23.312;2023-11-19T12:29:54;2.95;;;2.10;;
20036;SDS011;10179;42.640;23.312;2023-11-19T12:32:22;4.93;;;3.10;;
20036;SDS011;10179;42.640;23.312;2023-11-19T12:34:47;3.95;;;2.63;;
20036;SDS011;10179;42.640;23.312;2023-11-19T12:37:13;5.03;;;2.13;;
20036;SDS011;10179;42.640;23.312;2023-11-19T12:39:38;5.00;;;2.70;;
20036;SDS011;10179;42.640;23.312;2023-11-19T12:42:05;2.58;;;1.77;;
20036;SDS011;10179;42.640;23.312;2023-11-19T12:44:30;2.33;;;1.65;;
20036;SDS011;10179;42.640;23.312;2023-11-19T12:47:02;2.17;;;1.20;;
20036;SDS011;10179;42.640;23.312;2023-11-19T12:49:29;2.45;;;1.63;;
20036;SDS011;10179;42.640;23.312;2023-11-19T12:51:54;2.92;;;1.90;;
20036;SDS011;10179;42.640;23.312;2023-11-19T12:54:20;6.03;;;2.22;;
20036;SDS011;10179;42.640;23.312;2023-11-19T12:56:54;2.35;;;1.75;;
20036;SDS011;10179;42.640;23.312;2023-11-19T12:59:19;4.10;;;1.63;;
20036;SDS011;10179;42.640;23.312;2023-11-19T13:01:57;3.13;;;2.47;;
20036;SDS011;10179;42.640;23.312;2023-11-19T13:04:27;7.65;;;3.80;;
20036;SDS011;10179;42.640;23.312;2023-11-19T13:06:55;5.72;;;2.38;;
20036;SDS011;10179;42.640;23.312;2023-11-19T13:09:22;2.22;;;1.60;;
20036;SDS011;10179;42.640;23.312;2023-11-19T13:11:52;4.95;;;1.30;;
20036;SDS011;10179;42.640;23.312;2023-11-19T13:14:21;4.63;;;2.78;;
20036;SDS011;10179;42.640;23.312;2023-11-19T13:16:48;2.30;;;1.40;;
20036;SDS011;10179;42.640;23.312;2023-11-19T13:19:14;6.80;;;3.60;;
20036;SDS011;10179;42.640;23.312;2023-11-19T13:21:41;3.30;;;1.52;;
20036;SDS011;10179;42.640;23.312;2023-11-19T13:24:07;4.22;;;2.35;;
20036;SDS011;10179;42.640;23.312;2023-11-19T13:26:33;3.17;;;2.15;;
20036;SDS011;10179;42.640;23.312;2023-11-19T13:28:59;3.55;;;2.03;;
20036;SDS011;10179;42.640;23.312;2023-11-19T13:31:25;2.53;;;2.17;;
20036;SDS011;10179;42.640;23.312;2023-11-19T13:33:50;2.05;;;1.65;;
20036;SDS011;10179;42.640;23.312;2023-11-19T13:36:16;2.85;;;1.40;;
20036;SDS011;10179;42.640;23.312;2023-11-19T13:38:41;4.18;;;1.80;;
20036;SDS011;10179;42.640;23.312;2023-11-19T13:41:09;3.63;;;2.35;;
20036;SDS011;10179;42.640;23.312;2023-11-19T13:43:36;3.15;;;2.53;;
20036;SDS011;10179;42.640;23.312;2023-11-19T13:46:01;5.82;;;2.95;;
20036;SDS011;10179;42.640;23.312;2023-11-19T13:48:27;4.82;;;2.15;;
20036;SDS011;10179;42.640;23.312;2023-11-19T13:50:54;3.58;;;2.10;;
20036;SDS011;10179;42.640;23.312;2023-11-19T13:53:20;4.78;;;2.58;;
20036;SDS011;10179;42.640;23.312;2023-11-19T13:55:45;3.38;;;2.38;;
20036;SDS011;10179;42.640;23.312;2023-11-19T13:58:11;4.88;;;3.17;;
20036;SDS011;10179;42.640;23.312;2023-11-19T14:00:36;4.82;;;2.67;;
20036;SDS011;10179;42.640;23.312;2023-11-19T14:03:02;4.00;;;2.35;;
20036;SDS011;10179;42.640;23.312;2023-11-19T14:05:27;6.75;;;3.15;;
20036;SDS011;10179;42.640;23.312;2023-11-19T14:07:53;8.32;;;3.25;;
20036;SDS011;10179;42.640;23.312;2023-11-19T14:10:20;7.07;;;4.00;;
20036;SDS011;10179;42.640;23.312;2023-11-19T14:12:46;4.80;;;3.10;;
20036;SDS011;10179;42.640;23.312;2023-11-19T14:15:11;4.80;;;2.80;;
20036;SDS011;10179;42.640;23.312;2023-11-19T14:17:42;5.63;;;2.88;;
20036;SDS011;10179;42.640;23.312;2023-11-19T14:20:07;3.75;;;2.25;;
20036;SDS011;10179;42.640;23.312;2023-11-19T14:22:42;5.97;;;2.60;;
20036;SDS011;10179;42.640;23.312;2023-11-19T14:25:09;4.05;;;2.42;;
20036;SDS011;10179;42.640;23.312;2023-11-19T14:27:36;3.35;;;2.25;;
20036;SDS011;10179;42.640;23.312;2023-11-19T14:30:03;3.50;;;2.10;;
20036;SDS011;10179;42.640;23.312;2023-11-19T14:32:30;5.93;;;3.22;;
20036;SDS011;10179;42.640;23.312;2023-11-19T14:34:56;6.00;;;1.98;;
20036;SDS011;10179;42.640;23.312;2023-11-19T14:37:21;3.35;;;2.10;;
20036;SDS011;10179;42.640;23.312;2023-11-19T14:39:46;5.32;;;1.60;;
20036;SDS011;10179;42.640;23.312;2023-11-19T14:42:12;8.02;;;4.15;;
20036;SDS011;10179;42.640;23.312;2023-11-19T14:44:38;5.82;;;3.00;;
20036;SDS011;10179;42.640;23.312;2023-11-19T14:47:04;8.02;;;3.95;;
20036;SDS011;10179;42.640;23.312;2023-11-19T14:49:30;9.07;;;4.65;;
20036;SDS011;10179;42.640;23.312;2023-11-19T14:51:55;7.03;;;3.80;;
20036;SDS011;10179;42.640;23.312;2023-11-19T14:54:20;7.30;;;4.30;;
20036;SDS011;10179;42.640;23.312;2023-11-19T14:56:46;9.82;;;5.45;;
20036;SDS011;10179;42.640;23.312;2023-11-19T14:59:11;12.80;;;6.25;;
20036;SDS011;10179;42.640;23.312;2023-11-19T15:01:37;18.15;;;7.72;;